sensor_id;sensor_type;location;lat;lon;timestamp;P1;durP1;ratioP1;P2;durP2;ratioP2
31368;SDS011;18004;48.416;10.066;2023-05-07T00:00:28;6.63;;;3.05;;
31368;SDS011;18004;48.416;10.066;2023-05-07T00:02:54;8.55;;;2.97;;
31368;SDS011;18004;48.416;10.066;2023-05-07T00:05:20;5.05;;;3.10;;
31368;SDS011;18004;48.416;10.066;2023-05-07T00:07:46;5.03;;;2.97;;
31368;SDS011;18004;48.416;10.066;2023-05-07T00:10:12;2.83;;;2.63;;
31368;SDS011;18004;48.416;10.066;2023-05-07T00:12:38;9.68;;;3.10;;
31368;SDS011;18004;48.416;10.066;2023-05-07T00:15:04;4.72;;;2.95;;
31368;SDS011;18004;48.416;10.066;2023-05-07T00:17:30;3.67;;;2.53;;
31368;SDS011;18004;48.416;10.066;2023-05-07T00:19:57;4.43;;;2.80;;
31368;SDS011;18004;48.416;10.066;2023-05-07T00:22:23;6.97;;;2.70;;
31368;SDS011;18004;48.416;10.066;2023-05-07T00:24:49;2.67;;;1.85;;
31368;SDS011;18004;48.416;10.066;2023-05-07T00:27:14;3.75;;;2.45;;
31368;SDS011;18004;48.416;10.066;2023-05-07T00:29:40;2.38;;;2.13;;
31368;SDS011;18004;48.416;10.066;2023-05-07T00:32:06;3.15;;;1.75;;
31368;SDS011;18004;48.416;10.066;2023-05-07T00:34:33;2.53;;;1.98;;
31368;SDS011;18004;48.416;10.066;2023-05-07T00:36:58;3.20;;;2.03;;
31368;SDS011;18004;48.416;10.066;2023-05-07T00:39:26;3.08;;;1.80;;
31368;SDS011;18004;48.416;10.066;2023-05-07T00:41:52;3.58;;;2.05;;
31368;SDS011;18004;48.416;10.066;2023-05-07T00:44:18;2.75;;;2.00;;
31368;SDS011;18004;48.416;10.066;2023-05-07T00:46:43;3.70;;;2.33;;
31368;SDS011;18004;48.416;10.066;2023-05-07T00:49:10;2.40;;;1.90;;
31368;SDS011;18004;48.416;10.066;2023-05-07T00:51:36;2.20;;;1.60;;
31368;SDS011;18004;48.416;10.066;2023-05-07T00:54:02;6.93;;;2.20;;
31368;SDS011;18004;48.416;10.066;2023-05-07T00:56:28;5.75;;;2.50;;
31368;SDS011;18004;48.416;10.066;2023-05-07T00:58:54;4.65;;;2.28;;
31368;SDS011;18004;48.416;10.066;2023-05-07T01:01:21;3.38;;;2.38;;
31368;SDS011;18004;48.416;10.066;2023-05-07T01:03:47;4.30;;;2.92;;
31368;SDS011;18004;48.416;10.066;2023-05-07T01:06:13;3.78;;;2.20;;
31368;SDS011;18004;48.416;10.066;2023-05-07T01:08:42;3.05;;;2.20;;
31368;SDS011;18004;48.416;10.066;2023-05-07T01:11:08;2.20;;;1.90;;
31368;SDS011;18004;48.416;10.066;2023-05-07T01:13:34;3.40;;;1.90;;
31368;SDS011;18004;48.416;10.066;2023-05-07T01:16:01;5.10;;;2.17;;
31368;SDS011;18004;48.416;10.066;2023-05-07T01:18:28;4.82;;;2.75;;
31368;SDS011;18004;48.416;10.066;2023-05-07T01:20:55;4.40;;;2.45;;
31368;SDS011;18004;48.416;10.066;2023-05-07T01:23:23;4.20;;;3.05;;
31368;SDS011;18004;48.416;10.066;2023-05-07T01:25:53;3.72;;;2.60;;
31368;SDS011;18004;48.416;10.066;2023-05-07T01:28:19;3.47;;;2.42;;
31368;SDS011;18004;48.416;10.066;2023-05-07T01:30:55;6.20;;;3.05;;
31368;SDS011;18004;48.416;10.066;2023-05-07T01:33:25;7.07;;;2.65;;
31368;SDS011;18004;48.416;10.066;2023-05-07T01:35:54;3.03;;;2.47;;
31368;SDS011;18004;48.416;10.066;2023-05-07T01:38:21;2.40;;;2.05;;
31368;SDS011;18004;48.416;10.066;2023-05-07T01:40:47;4.25;;;2.70;;
31368;SDS011;18004;48.416;10.066;2023-05-07T01:43:13;3.25;;;2.53;;
31368;SDS011;18004;48.416;10.066;2023-05-07T01:45:39;3.97;;;2.53;;
31368;SDS011;18004;48.416;10.066;2023-05-07T01:48:05;4.03;;;2.50;;
31368;SDS011;18004;48.416;10.066;2023-05-07T01:50:33;8.80;;;2.25;;
31368;SDS011;18004;48.416;10.066;2023-05-07T01:53:00;3.13;;;2.33;;
31368;SDS011;18004;48.416;10.066;2023-05-07T01:55:27;3.38;;;2.38;;
31368;SDS011;18004;48.416;10.066;2023-05-07T01:57:53;2.65;;;1.55;;
31368;SDS011;18004;48.416;10.066;2023-05-07T02:00:19;3.03;;;1.70;;
31368;SDS011;18004;48.416;10.066;2023-05-07T02:02:45;2.53;;;1.70;;
31368;SDS011;18004;48.416;10.066;2023-05-07T02:05:10;1.67;;;1.58;;
31368;SDS011;18004;48.416;10.066;2023-05-07T02:07:36;2.67;;;1.80;;
31368;SDS011;18004;48.416;10.066;2023-05-07T02:10:02;2.17;;;1.70;;
31368;SDS011;18004;48.416;10.066;2023-05-07T02:12:28;2.63;;;1.63;;
31368;SDS011;18004;48.416;10.066;2023-05-07T02:14:54;2.08;;;1.83;;
31368;SDS011;18004;48.416;10.066;2023-05-07T02:17:19;3.17;;;1.80;;
31368;SDS011;18004;48.416;10.066;2023-05-07T02:19:45;4.22;;;1.92;;
31368;SDS011;18004;48.416;10.066;2023-05-07T02:22:11;2.10;;;1.58;;
31368;SDS011;18004;48.416;10.066;2023-05-07T02:24:37;1.75;;;1.60;;
31368;SDS011;18004;48.416;10.066;2023-05-07T02:27:02;2.08;;;1.85;;
31368;SDS011;18004;48.416;10.066;2023-05-07T02:29:28;3.80;;;1.95;;
31368;SDS011;18004;48.416;10.066;2023-05-07T02:31:54;1.70;;;1.50;;
31368;SDS011;18004;48.416;10.066;2023-05-07T02:34:20;1.63;;;1.40;;
31368;SDS011;18004;48.416;10.066;2023-05-07T02:36:46;1.95;;;1.60;;
31368;SDS011;18004;48.416;10.066;2023-05-07T02:39:12;8.15;;;1.83;;
31368;SDS011;18004;48.416;10.066;2023-05-07T02:41:38;4.47;;;1.50;;
31368;SDS011;18004;48.416;10.066;2023-05-07T02:44:04;4.03;;;1.80;;
31368;SDS011;18004;48.416;10.066;2023-05-07T02:46:30;6.00;;;1.83;;
31368;SDS011;18004;48.416;10.066;2023-05-07T02:48:56;2.85;;;2.00;;
31368;SDS011;18004;48.416;10.066;2023-05-07T02:51:22;2.40;;;1.90;;
31368;SDS011;18004;48.416;10.066;2023-05-07T02:53:48;4.80;;;1.95;;
31368;SDS011;18004;48.416;10.066;2023-05-07T02:56:14;1.38;;;1.27;;
31368;SDS011;18004;48.416;10.066;2023-05-07T02:58:40;2.70;;;2.00;;
31368;SDS011;18004;48.416;10.066;2023-05-07T03:01:07;4.68;;;1.85;;
31368;SDS011;18004;48.416;10.066;2023-05-07T03:03:33;2.03;;;1.48;;
31368;SDS011;18004;48.416;10.066;2023-05-07T03:06:00;2.55;;;1.70;;
31368;SDS011;18004;48.416;10.066;2023-05-07T03:08:25;3.70;;;1.80;;
31368;SDS011;18004;48.416;10.066;2023-05-07T03:10:51;1.80;;;1.60;;
31368;SDS011;18004;48.416;10.066;2023-05-07T03:13:17;2.63;;;2.17;;
31368;SDS011;18004;48.416;10.066;2023-05-07T03:15:43;2.15;;;1.92;;
31368;SDS011;18004;48.416;10.066;2023-05-07T03:18:09;4.20;;;2.50;;
31368;SDS011;18004;48.416;10.066;2023-05-07T03:20:35;2.53;;;2.30;;
31368;SDS011;18004;48.416;10.066;2023-05-07T03:23:01;3.03;;;2.30;;
31368;SDS011;18004;48.416;10.066;2023-05-07T03:25:27;2.70;;;1.80;;
31368;SDS011;18004;48.416;10.066;2023-05-07T03:27:55;2.60;;;2.00;;
31368;SDS011;18004;48.416;10.066;2023-05-07T03:30:21;2.65;;;1.90;;
31368;SDS011;18004;48.416;10.066;2023-05-07T03:32:47;2.33;;;1.95;;
31368;SDS011;18004;48.416;10.066;2023-05-07T03:35:13;5.07;;;1.90;;
31368;SDS011;18004;48.416;10.066;2023-05-07T03:37:39;3.05;;;1.65;;
31368;SDS011;18004;48.416;10.066;2023-05-07T03:40:06;2.25;;;1.70;;
31368;SDS011;18004;48.416;10.066;2023-05-07T03:42:33;2.80;;;1.83;;
31368;SDS011;18004;48.416;10.066;2023-05-07T03:44:58;3.20;;;1.90;;
31368;SDS011;18004;48.416;10.066;2023-05-07T03:47:24;3.30;;;2.13;;
31368;SDS011;18004;48.416;10.066;2023-05-07T03:49:50;3.05;;;2.22;;
31368;SDS011;18004;48.416;10.066;2023-05-07T03:52:18;3.63;;;2.53;;
31368;SDS011;18004;48.416;10.066;2023-05-07T03:54:48;4.20;;;2.60;;
31368;SDS011;18004;48.416;10.066;2023-05-07T03:57:13;3.05;;;2.50;;
31368;SDS011;18004;48.416;10.066;2023-05-07T03:59:39;2.65;;;2.30;;
31368;SDS011;18004;48.416;10.066;2023-05-07T04:02:05;3.35;;;2.70;;
31368;SDS011;18004;48.416;10.066;2023-05-07T04:04:31;2.95;;;2.08;;
31368;SDS011;18004;48.416;10.066;2023-05-07T04:06:58;3.28;;;2.60;;
31368;SDS011;18004;48.416;10.066;2023-05-07T04:09:25;3.10;;;2.10;;
31368;SDS011;18004;48.416;10.066;2023-05-07T04:11:51;3.92;;;2.22;;
31368;SDS011;18004;48.416;10.066;2023-05-07T04:14:17;2.20;;;2.00;;
31368;SDS011;18004;48.416;10.066;2023-05-07T04:16:43;2.22;;;2.00;;
31368;SDS011;18004;48.416;10.066;2023-05-07T04:19:08;3.47;;;2.13;;
31368;SDS011;18004;48.416;10.066;2023-05-07T04:21:34;2.55;;;2.03;;
31368;SDS011;18004;48.416;10.066;2023-05-07T04:24:00;6.07;;;2.30;;
31368;SDS011;18004;48.416;10.066;2023-05-07T04:26:25;2.13;;;1.92;;
31368;SDS011;18004;48.416;10.066;2023-05-07T04:28:51;3.95;;;2.00;;
31368;SDS011;18004;48.416;10.066;2023-05-07T04:31:17;2.28;;;2.03;;
31368;SDS011;18004;48.416;10.066;2023-05-07T04:33:43;1.83;;;1.70;;
31368;SDS011;18004;48.416;10.066;2023-05-07T04:36:08;2.50;;;2.13;;
31368;SDS011;18004;48.416;10.066;2023-05-07T04:38:34;4.93;;;2.58;;
31368;SDS011;18004;48.416;10.066;2023-05-07T04:41:03;2.00;;;1.60;;
31368;SDS011;18004;48.416;10.066;2023-05-07T04:43:30;2.42;;;1.80;;
31368;SDS011;18004;48.416;10.066;2023-05-07T04:45:56;3.67;;;2.10;;
31368;SDS011;18004;48.416;10.066;2023-05-07T04:48:21;4.20;;;2.10;;
31368;SDS011;18004;48.416;10.066;2023-05-07T04:50:48;4.30;;;2.55;;
31368;SDS011;18004;48.416;10.066;2023-05-07T04:53:17;2.13;;;1.90;;
31368;SDS011;18004;48.416;10.066;2023-05-07T04:55:44;2.47;;;1.88;;
31368;SDS011;18004;48.416;10.066;2023-05-07T04:58:10;4.13;;;2.35;;
31368;SDS011;18004;48.416;10.066;2023-05-07T05:00:37;3.33;;;2.08;;
31368;SDS011;18004;48.416;10.066;2023-05-07T05:03:03;2.17;;;1.98;;
31368;SDS011;18004;48.416;10.066;2023-05-07T05:05:30;3.78;;;2.20;;
31368;SDS011;18004;48.416;10.066;2023-05-07T05:07:55;4.22;;;2.60;;
31368;SDS011;18004;48.416;10.066;2023-05-07T05:10:21;2.88;;;2.03;;
31368;SDS011;18004;48.416;10.066;2023-05-07T05:12:47;7.90;;;2.33;;
31368;SDS011;18004;48.416;10.066;2023-05-07T05:15:13;3.70;;;2.22;;
31368;SDS011;18004;48.416;10.066;2023-05-07T05:17:39;3.65;;;2.47;;
31368;SDS011;18004;48.416;10.066;2023-05-07T05:20:05;4.10;;;2.22;;
31368;SDS011;18004;48.416;10.066;2023-05-07T05:22:31;2.63;;;2.10;;
31368;SDS011;18004;48.416;10.066;2023-05-07T05:24:57;2.97;;;2.17;;
31368;SDS011;18004;48.416;10.066;2023-05-07T05:27:23;2.83;;;2.25;;
31368;SDS011;18004;48.416;10.066;2023-05-07T05:29:49;3.53;;;2.50;;
31368;SDS011;18004;48.416;10.066;2023-05-07T05:32:15;4.43;;;2.42;;
31368;SDS011;18004;48.416;10.066;2023-05-07T05:34:41;6.38;;;2.47;;
31368;SDS011;18004;48.416;10.066;2023-05-07T05:37:06;3.33;;;2.80;;
31368;SDS011;18004;48.416;10.066;2023-05-07T05:39:32;2.53;;;2.20;;
31368;SDS011;18004;48.416;10.066;2023-05-07T05:41:58;4.25;;;2.60;;
31368;SDS011;18004;48.416;10.066;2023-05-07T05:44:24;2.72;;;2.35;;
31368;SDS011;18004;48.416;10.066;2023-05-07T05:46:50;4.00;;;2.53;;
31368;SDS011;18004;48.416;10.066;2023-05-07T05:49:16;3.28;;;2.15;;
31368;SDS011;18004;48.416;10.066;2023-05-07T05:51:42;2.60;;;2.17;;
31368;SDS011;18004;48.416;10.066;2023-05-07T05:54:08;2.45;;;2.00;;
31368;SDS011;18004;48.416;10.066;2023-05-07T05:56:34;3.17;;;2.15;;
31368;SDS011;18004;48.416;10.066;2023-05-07T05:59:00;3.10;;;2.25;;
31368;SDS011;18004;48.416;10.066;2023-05-07T06:01:26;3.47;;;2.35;;
31368;SDS011;18004;48.416;10.066;2023-05-07T06:03:51;3.78;;;2.33;;
31368;SDS011;18004;48.416;10.066;2023-05-07T06:06:17;6.90;;;2.13;;
31368;SDS011;18004;48.416;10.066;2023-05-07T06:08:43;3.60;;;2.53;;
31368;SDS011;18004;48.416;10.066;2023-05-07T06:11:09;4.18;;;2.30;;
31368;SDS011;18004;48.416;10.066;2023-05-07T06:13:34;2.78;;;2.20;;
31368;SDS011;18004;48.416;10.066;2023-05-07T06:16:00;2.22;;;2.03;;
31368;SDS011;18004;48.416;10.066;2023-05-07T06:18:26;5.90;;;2.17;;
31368;SDS011;18004;48.416;10.066;2023-05-07T06:20:52;4.93;;;2.63;;
31368;SDS011;18004;48.416;10.066;2023-05-07T06:23:18;4.35;;;2.72;;
31368;SDS011;18004;48.416;10.066;2023-05-07T06:25:48;3.67;;;2.42;;
31368;SDS011;18004;48.416;10.066;2023-05-07T06:28:15;3.47;;;2.42;;
31368;SDS011;18004;48.416;10.066;2023-05-07T06:30:41;12.02;;;3.03;;
31368;SDS011;18004;48.416;10.066;2023-05-07T06:33:06;4.20;;;2.22;;
31368;SDS011;18004;48.416;10.066;2023-05-07T06:35:32;2.83;;;2.20;;
31368;SDS011;18004;48.416;10.066;2023-05-07T06:37:58;7.50;;;2.55;;
31368;SDS011;18004;48.416;10.066;2023-05-07T06:40:24;4.00;;;2.42;;
31368;SDS011;18004;48.416;10.066;2023-05-07T06:42:50;3.63;;;2.60;;
31368;SDS011;18004;48.416;10.066;2023-05-07T06:45:16;5.13;;;2.88;;
31368;SDS011;18004;48.416;10.066;2023-05-07T06:47:42;3.83;;;3.00;;
31368;SDS011;18004;48.416;10.066;2023-05-07T06:50:08;4.28;;;3.30;;
31368;SDS011;18004;48.416;10.066;2023-05-07T06:52:34;2.50;;;2.30;;
31368;SDS011;18004;48.416;10.066;2023-05-07T06:55:00;3.60;;;2.90;;
31368;SDS011;18004;48.416;10.066;2023-05-07T06:57:26;5.47;;;3.17;;
31368;SDS011;18004;48.416;10.066;2023-05-07T06:59:52;6.97;;;3.38;;
31368;SDS011;18004;48.416;10.066;2023-05-07T07:02:18;4.63;;;3.20;;
31368;SDS011;18004;48.416;10.066;2023-05-07T07:04:43;6.35;;;3.25;;
31368;SDS011;18004;48.416;10.066;2023-05-07T07:07:10;5.13;;;3.33;;
31368;SDS011;18004;48.416;10.066;2023-05-07T07:09:36;2.90;;;2.55;;
31368;SDS011;18004;48.416;10.066;2023-05-07T07:12:02;5.43;;;2.95;;
31368;SDS011;18004;48.416;10.066;2023-05-07T07:14:28;4.65;;;3.00;;
31368;SDS011;18004;48.416;10.066;2023-05-07T07:16:53;4.07;;;2.85;;
31368;SDS011;18004;48.416;10.066;2023-05-07T07:19:19;2.97;;;2.33;;
31368;SDS011;18004;48.416;10.066;2023-05-07T07:21:45;3.47;;;2.53;;
31368;SDS011;18004;48.416;10.066;2023-05-07T07:24:17;3.92;;;2.30;;
31368;SDS011;18004;48.416;10.066;2023-05-07T07:26:46;4.28;;;2.72;;
31368;SDS011;18004;48.416;10.066;2023-05-07T07:29:12;2.55;;;2.30;;
31368;SDS011;18004;48.416;10.066;2023-05-07T07:31:38;3.30;;;2.83;;
31368;SDS011;18004;48.416;10.066;2023-05-07T07:34:04;4.53;;;2.80;;
31368;SDS011;18004;48.416;10.066;2023-05-07T07:36:30;2.75;;;2.50;;
31368;SDS011;18004;48.416;10.066;2023-05-07T07:38:55;4.30;;;2.20;;
31368;SDS011;18004;48.416;10.066;2023-05-07T07:41:21;3.95;;;2.38;;
31368;SDS011;18004;48.416;10.066;2023-05-07T07:43:49;2.97;;;2.50;;
31368;SDS011;18004;48.416;10.066;2023-05-07T07:46:15;2.60;;;2.03;;
31368;SDS011;18004;48.416;10.066;2023-05-07T07:48:41;2.50;;;2.05;;
31368;SDS011;18004;48.416;10.066;2023-05-07T07:51:07;4.65;;;2.50;;
31368;SDS011;18004;48.416;10.066;2023-05-07T07:53:32;3.40;;;2.08;;
31368;SDS011;18004;48.416;10.066;2023-05-07T07:55:58;3.05;;;2.15;;
31368;SDS011;18004;48.416;10.066;2023-05-07T07:58:24;4.80;;;2.85;;
31368;SDS011;18004;48.416;10.066;2023-05-07T08:00:50;3.75;;;2.35;;
31368;SDS011;18004;48.416;10.066;2023-05-07T08:03:16;3.38;;;2.22;;
31368;SDS011;18004;48.416;10.066;2023-05-07T08:05:49;3.65;;;2.80;;
31368;SDS011;18004;48.416;10.066;2023-05-07T08:12:32;4.43;;;2.60;;
31368;SDS011;18004;48.416;10.066;2023-05-07T08:22:57;3.10;;;2.30;;
31368;SDS011;18004;48.416;10.066;2023-05-07T08:25:42;2.47;;;2.22;;
31368;SDS011;18004;48.416;10.066;2023-05-07T08:28:14;4.70;;;1.77;;
31368;SDS011;18004;48.416;10.066;2023-05-07T08:30:40;2.72;;;1.98;;
31368;SDS011;18004;48.416;10.066;2023-05-07T08:40:53;4.68;;;2.28;;
31368;SDS011;18004;48.416;10.066;2023-05-07T10:24:57;2.55;;;1.83;;
31368;SDS011;18004;48.416;10.066;2023-05-07T10:28:14;5.63;;;4.43;;
31368;SDS011;18004;48.416;10.066;2023-05-07T11:04:15;3.97;;;2.28;;
31368;SDS011;18004;48.416;10.066;2023-05-07T11:08:02;4.82;;;2.45;;
31368;SDS011;18004;48.416;10.066;2023-05-07T11:10:55;2.83;;;2.38;;
31368;SDS011;18004;48.416;10.066;2023-05-07T11:13:44;6.18;;;2.75;;
31368;SDS011;18004;48.416;10.066;2023-05-07T11:16:26;2.70;;;1.70;;
31368;SDS011;18004;48.416;10.066;2023-05-07T11:19:50;5.45;;;2.63;;
31368;SDS011;18004;48.416;10.066;2023-05-07T11:22:40;1.85;;;1.50;;
31368;SDS011;18004;48.416;10.066;2023-05-07T13:00:51;1.02;;;0.55;;
31368;SDS011;18004;48.416;10.066;2023-05-07T13:54:31;0.90;;;0.60;;
31368;SDS011;18004;48.416;10.066;2023-05-07T13:57:23;1.02;;;0.60;;
31368;SDS011;18004;48.416;10.066;2023-05-07T13:59:58;1.15;;;0.70;;
31368;SDS011;18004;48.416;10.066;2023-05-07T14:17:45;1.58;;;0.63;;
31368;SDS011;18004;48.416;10.066;2023-05-07T14:29:52;0.52;;;0.50;;
31368;SDS011;18004;48.416;10.066;2023-05-07T14:35:18;0.68;;;0.55;;
31368;SDS011;18004;48.416;10.066;2023-05-07T14:41:06;1.17;;;0.80;;
31368;SDS011;18004;48.416;10.066;2023-05-07T14:44:40;1.35;;;0.90;;
31368;SDS011;18004;48.416;10.066;2023-05-07T14:47:52;1.13;;;0.70;;
31368;SDS011;18004;48.416;10.066;2023-05-07T14:54:12;0.85;;;0.80;;
31368;SDS011;18004;48.416;10.066;2023-05-07T14:56:41;1.25;;;0.70;;
31368;SDS011;18004;48.416;10.066;2023-05-07T14:59:19;4.00;;;0.82;;
31368;SDS011;18004;48.416;10.066;2023-05-07T15:06:00;0.95;;;0.73;;
31368;SDS011;18004;48.416;10.066;2023-05-07T15:08:31;0.98;;;0.80;;
31368;SDS011;18004;48.416;10.066;2023-05-07T15:14:37;2.30;;;1.20;;
31368;SDS011;18004;48.416;10.066;2023-05-07T15:30:34;2.03;;;0.93;;
31368;SDS011;18004;48.416;10.066;2023-05-07T15:37:33;1.35;;;1.15;;
31368;SDS011;18004;48.416;10.066;2023-05-07T15:40:17;1.70;;;1.48;;
31368;SDS011;18004;48.416;10.066;2023-05-07T15:46:06;1.83;;;1.40;;
31368;SDS011;18004;48.416;10.066;2023-05-07T15:53:26;1.55;;;1.27;;
31368;SDS011;18004;48.416;10.066;2023-05-07T16:02:38;1.85;;;1.15;;
31368;SDS011;18004;48.416;10.066;2023-05-07T16:06:03;0.95;;;0.88;;
31368;SDS011;18004;48.416;10.066;2023-05-07T16:08:30;1.70;;;0.90;;
31368;SDS011;18004;48.416;10.066;2023-05-07T16:11:02;2.70;;;1.45;;
31368;SDS011;18004;48.416;10.066;2023-05-07T16:13:39;2.28;;;0.90;;
31368;SDS011;18004;48.416;10.066;2023-05-07T16:16:08;1.08;;;0.93;;
31368;SDS011;18004;48.416;10.066;2023-05-07T16:18:44;2.45;;;1.10;;
31368;SDS011;18004;48.416;10.066;2023-05-07T16:21:10;1.88;;;1.10;;
31368;SDS011;18004;48.416;10.066;2023-05-07T16:23:37;1.65;;;1.10;;
31368;SDS011;18004;48.416;10.066;2023-05-07T16:26:02;7.07;;;0.80;;
31368;SDS011;18004;48.416;10.066;2023-05-07T16:28:29;2.53;;;1.13;;
31368;SDS011;18004;48.416;10.066;2023-05-07T16:30:55;1.98;;;1.00;;
31368;SDS011;18004;48.416;10.066;2023-05-07T16:33:21;4.90;;;1.17;;
31368;SDS011;18004;48.416;10.066;2023-05-07T16:35:51;2.08;;;1.00;;
31368;SDS011;18004;48.416;10.066;2023-05-07T16:38:17;2.72;;;1.23;;
31368;SDS011;18004;48.416;10.066;2023-05-07T16:40:43;1.60;;;1.20;;
31368;SDS011;18004;48.416;10.066;2023-05-07T16:43:09;3.00;;;1.42;;
31368;SDS011;18004;48.416;10.066;2023-05-07T16:45:35;2.38;;;1.10;;
31368;SDS011;18004;48.416;10.066;2023-05-07T16:48:01;3.97;;;1.60;;
31368;SDS011;18004;48.416;10.066;2023-05-07T16:50:28;2.00;;;1.48;;
31368;SDS011;18004;48.416;10.066;2023-05-07T16:52:53;2.10;;;1.90;;
31368;SDS011;18004;48.416;10.066;2023-05-07T16:55:19;5.22;;;2.03;;
31368;SDS011;18004;48.416;10.066;2023-05-07T16:57:45;1.98;;;1.52;;
31368;SDS011;18004;48.416;10.066;2023-05-07T17:00:11;1.90;;;1.40;;
31368;SDS011;18004;48.416;10.066;2023-05-07T17:02:37;3.47;;;1.98;;
31368;SDS011;18004;48.416;10.066;2023-05-07T17:05:03;2.92;;;2.00;;
31368;SDS011;18004;48.416;10.066;2023-05-07T17:07:32;4.65;;;1.52;;
31368;SDS011;18004;48.416;10.066;2023-05-07T17:09:58;2.45;;;1.48;;
31368;SDS011;18004;48.416;10.066;2023-05-07T17:12:23;4.32;;;1.30;;
31368;SDS011;18004;48.416;10.066;2023-05-07T17:14:50;1.15;;;1.00;;
31368;SDS011;18004;48.416;10.066;2023-05-07T17:17:16;4.40;;;0.80;;
31368;SDS011;18004;48.416;10.066;2023-05-07T17:19:42;1.67;;;0.60;;
31368;SDS011;18004;48.416;10.066;2023-05-07T17:22:08;1.00;;;0.85;;
31368;SDS011;18004;48.416;10.066;2023-05-07T17:24:34;2.28;;;0.95;;
31368;SDS011;18004;48.416;10.066;2023-05-07T17:27:00;0.50;;;0.50;;
31368;SDS011;18004;48.416;10.066;2023-05-07T17:29:26;1.45;;;0.75;;
31368;SDS011;18004;48.416;10.066;2023-05-07T17:31:53;0.65;;;0.63;;
31368;SDS011;18004;48.416;10.066;2023-05-07T17:34:19;1.05;;;0.70;;
31368;SDS011;18004;48.416;10.066;2023-05-07T17:36:45;3.55;;;0.60;;
31368;SDS011;18004;48.416;10.066;2023-05-07T17:39:10;1.58;;;0.80;;
31368;SDS011;18004;48.416;10.066;2023-05-07T17:41:36;1.17;;;1.00;;
31368;SDS011;18004;48.416;10.066;2023-05-07T17:44:02;2.22;;;0.60;;
31368;SDS011;18004;48.416;10.066;2023-05-07T17:46:28;0.70;;;0.70;;
31368;SDS011;18004;48.416;10.066;2023-05-07T17:48:54;0.60;;;0.60;;
31368;SDS011;18004;48.416;10.066;2023-05-07T17:51:21;1.13;;;0.50;;
31368;SDS011;18004;48.416;10.066;2023-05-07T17:53:47;0.98;;;0.68;;
31368;SDS011;18004;48.416;10.066;2023-05-07T17:56:14;2.25;;;0.55;;
31368;SDS011;18004;48.416;10.066;2023-05-07T17:58:40;1.10;;;0.82;;
31368;SDS011;18004;48.416;10.066;2023-05-07T18:01:05;1.13;;;0.88;;
31368;SDS011;18004;48.416;10.066;2023-05-07T18:03:31;2.70;;;0.82;;
31368;SDS011;18004;48.416;10.066;2023-05-07T18:05:58;3.10;;;1.50;;
31368;SDS011;18004;48.416;10.066;2023-05-07T18:08:24;1.40;;;0.80;;
31368;SDS011;18004;48.416;10.066;2023-05-07T18:10:50;1.23;;;1.13;;
31368;SDS011;18004;48.416;10.066;2023-05-07T18:13:16;1.60;;;1.13;;
31368;SDS011;18004;48.416;10.066;2023-05-07T18:15:44;1.35;;;0.98;;
31368;SDS011;18004;48.416;10.066;2023-05-07T18:18:10;1.40;;;0.98;;
31368;SDS011;18004;48.416;10.066;2023-05-07T18:20:36;0.60;;;0.60;;
31368;SDS011;18004;48.416;10.066;2023-05-07T18:23:02;1.10;;;0.90;;
31368;SDS011;18004;48.416;10.066;2023-05-07T18:25:29;1.00;;;0.82;;
31368;SDS011;18004;48.416;10.066;2023-05-07T18:27:55;3.47;;;1.10;;
31368;SDS011;18004;48.416;10.066;2023-05-07T18:30:21;2.83;;;1.20;;
31368;SDS011;18004;48.416;10.066;2023-05-07T18:32:47;1.13;;;0.88;;
31368;SDS011;18004;48.416;10.066;2023-05-07T18:35:13;1.67;;;0.90;;
31368;SDS011;18004;48.416;10.066;2023-05-07T18:37:40;0.80;;;0.70;;
31368;SDS011;18004;48.416;10.066;2023-05-07T18:40:06;0.75;;;0.75;;
31368;SDS011;18004;48.416;10.066;2023-05-07T18:42:33;1.10;;;0.68;;
31368;SDS011;18004;48.416;10.066;2023-05-07T18:44:58;0.93;;;0.77;;
31368;SDS011;18004;48.416;10.066;2023-05-07T18:47:24;1.00;;;0.70;;
31368;SDS011;18004;48.416;10.066;2023-05-07T18:49:50;1.65;;;0.82;;
31368;SDS011;18004;48.416;10.066;2023-05-07T18:52:16;1.30;;;0.80;;
31368;SDS011;18004;48.416;10.066;2023-05-07T18:54:45;1.30;;;0.98;;
31368;SDS011;18004;48.416;10.066;2023-05-07T18:57:11;4.78;;;1.13;;
31368;SDS011;18004;48.416;10.066;2023-05-07T18:59:36;1.60;;;1.35;;
31368;SDS011;18004;48.416;10.066;2023-05-07T19:02:02;1.67;;;1.17;;
31368;SDS011;18004;48.416;10.066;2023-05-07T19:04:28;2.90;;;1.10;;
31368;SDS011;18004;48.416;10.066;2023-05-07T19:06:54;1.70;;;0.90;;
31368;SDS011;18004;48.416;10.066;2023-05-07T19:09:21;5.85;;;1.17;;
31368;SDS011;18004;48.416;10.066;2023-05-07T19:11:47;2.00;;;1.00;;
31368;SDS011;18004;48.416;10.066;2023-05-07T19:14:12;0.85;;;0.80;;
31368;SDS011;18004;48.416;10.066;2023-05-07T19:16:38;2.22;;;1.10;;
31368;SDS011;18004;48.416;10.066;2023-05-07T19:19:04;1.30;;;1.10;;
31368;SDS011;18004;48.416;10.066;2023-05-07T19:21:30;1.75;;;0.90;;
31368;SDS011;18004;48.416;10.066;2023-05-07T19:23:56;1.42;;;0.95;;
31368;SDS011;18004;48.416;10.066;2023-05-07T19:26:22;0.68;;;0.68;;
31368;SDS011;18004;48.416;10.066;2023-05-07T19:28:48;2.45;;;0.95;;
31368;SDS011;18004;48.416;10.066;2023-05-07T19:31:22;4.20;;;1.00;;
31368;SDS011;18004;48.416;10.066;2023-05-07T19:33:51;1.63;;;0.80;;
31368;SDS011;18004;48.416;10.066;2023-05-07T19:36:17;0.88;;;0.82;;
31368;SDS011;18004;48.416;10.066;2023-05-07T19:38:43;0.93;;;0.80;;
31368;SDS011;18004;48.416;10.066;2023-05-07T19:41:09;1.80;;;1.10;;
31368;SDS011;18004;48.416;10.066;2023-05-07T19:43:38;1.20;;;0.60;;
31368;SDS011;18004;48.416;10.066;2023-05-07T19:46:05;1.13;;;1.02;;
31368;SDS011;18004;48.416;10.066;2023-05-07T19:48:31;1.58;;;1.02;;
31368;SDS011;18004;48.416;10.066;2023-05-07T19:50:57;2.05;;;0.98;;
31368;SDS011;18004;48.416;10.066;2023-05-07T19:53:24;1.60;;;0.80;;
31368;SDS011;18004;48.416;10.066;2023-05-07T19:55:58;1.75;;;0.90;;
31368;SDS011;18004;48.416;10.066;2023-05-07T19:58:28;1.33;;;0.80;;
31368;SDS011;18004;48.416;10.066;2023-05-07T20:00:54;2.47;;;1.10;;
31368;SDS011;18004;48.416;10.066;2023-05-07T20:03:19;2.22;;;1.23;;
31368;SDS011;18004;48.416;10.066;2023-05-07T20:05:45;0.75;;;0.75;;
31368;SDS011;18004;48.416;10.066;2023-05-07T20:08:12;1.45;;;0.77;;
31368;SDS011;18004;48.416;10.066;2023-05-07T20:10:38;2.65;;;0.77;;
31368;SDS011;18004;48.416;10.066;2023-05-07T20:13:04;5.10;;;0.93;;
31368;SDS011;18004;48.416;10.066;2023-05-07T20:15:30;1.33;;;0.82;;
31368;SDS011;18004;48.416;10.066;2023-05-07T20:17:56;2.47;;;0.90;;
31368;SDS011;18004;48.416;10.066;2023-05-07T20:20:22;2.60;;;0.88;;
31368;SDS011;18004;48.416;10.066;2023-05-07T20:22:48;3.25;;;0.95;;
31368;SDS011;18004;48.416;10.066;2023-05-07T20:25:13;6.35;;;3.05;;
31368;SDS011;18004;48.416;10.066;2023-05-07T20:27:39;10.20;;;4.65;;
31368;SDS011;18004;48.416;10.066;2023-05-07T20:30:06;7.30;;;3.58;;
31368;SDS011;18004;48.416;10.066;2023-05-07T20:32:32;3.85;;;1.70;;
31368;SDS011;18004;48.416;10.066;2023-05-07T20:34:58;1.85;;;1.17;;
31368;SDS011;18004;48.416;10.066;2023-05-07T20:37:24;2.50;;;1.55;;
31368;SDS011;18004;48.416;10.066;2023-05-07T20:39:51;2.70;;;1.30;;
31368;SDS011;18004;48.416;10.066;2023-05-07T20:42:17;1.73;;;1.05;;
31368;SDS011;18004;48.416;10.066;2023-05-07T20:44:43;2.00;;;0.98;;
31368;SDS011;18004;48.416;10.066;2023-05-07T20:47:08;1.85;;;1.17;;
31368;SDS011;18004;48.416;10.066;2023-05-07T20:49:34;1.35;;;1.00;;
31368;SDS011;18004;48.416;10.066;2023-05-07T20:52:00;1.38;;;1.02;;
31368;SDS011;18004;48.416;10.066;2023-05-07T20:54:26;1.23;;;1.05;;